Terminal Aerodrome Forecast
Issued by NWS

Home | Current Version | Previous Version | Graphics & Text | Print | Product List | Glossary On
Versions: 1 2 3 4 5 6 7 8 9 10 11 12 13 14 15 16 17 18 19 20 21 22 23 24 25 26 27 28 29 30
000
FTUS43 KABR 231616 AAB
TAFATY
TAF AMD
KATY 231616Z 2316/2412 01009KT P6SM VCTS SCT005CB OVC006
      TEMPO 2317/2319 5SM -TSRA BR BKN005CB OVC006
     FM232000 04009KT 4SM SHRA BR OVC008
     FM241000 04008KT P6SM -SHRA OVC015=

USA.gov is the U.S. government's official web portal to all federal, state and local government web resources and services.